sensor_id;sensor_type;location;lat;lon;timestamp;pressure;altitude;pressure_sealevel;temperature;humidity
8318;BME280;4196;48.926;8.964;2023-06-19T00:01:38;98538.38;;;19.21;79.87
8318;BME280;4196;48.926;8.964;2023-06-19T00:04:25;98546.25;;;19.21;81.12
8318;BME280;4196;48.926;8.964;2023-06-19T00:07:13;98542.06;;;19.17;80.96
8318;BME280;4196;48.926;8.964;2023-06-19T00:10:00;98541.41;;;19.12;78.74
8318;BME280;4196;48.926;8.964;2023-06-19T00:12:47;98538.94;;;19.09;79.52
8318;BME280;4196;48.926;8.964;2023-06-19T00:15:33;98545.88;;;19.10;79.47
8318;BME280;4196;48.926;8.964;2023-06-19T00:18:20;98552.28;;;19.04;79.56
8318;BME280;4196;48.926;8.964;2023-06-19T00:21:08;98543.81;;;18.97;79.81
8318;BME280;4196;48.926;8.964;2023-06-19T00:23:55;98544.75;;;18.96;80.31
8318;BME280;4196;48.926;8.964;2023-06-19T00:26:42;98492.16;;;18.58;78.30
8318;BME280;4196;48.926;8.964;2023-06-19T00:29:29;98535.56;;;18.86;77.57
8318;BME280;4196;48.926;8.964;2023-06-19T00:32:16;98546.69;;;18.91;80.82
8318;BME280;4196;48.926;8.964;2023-06-19T00:35:03;98551.94;;;18.91;80.98
8318;BME280;4196;48.926;8.964;2023-06-19T00:37:50;98548.41;;;18.92;77.58
8318;BME280;4196;48.926;8.964;2023-06-19T00:40:37;98547.63;;;18.90;80.38
8318;BME280;4196;48.926;8.964;2023-06-19T00:43:24;98549.41;;;18.90;81.93
8318;BME280;4196;48.926;8.964;2023-06-19T00:46:11;98547.97;;;18.82;82.98
8318;BME280;4196;48.926;8.964;2023-06-19T00:48:58;98562.44;;;18.91;84.43
8318;BME280;4196;48.926;8.964;2023-06-19T00:51:44;98606.41;;;19.25;77.82
8318;BME280;4196;48.926;8.964;2023-06-19T00:54:33;98624.72;;;19.46;77.15
8318;BME280;4196;48.926;8.964;2023-06-19T00:57:20;98605.09;;;19.73;69.34
8318;BME280;4196;48.926;8.964;2023-06-19T01:00:07;98623.25;;;20.33;65.76
8318;BME280;4196;48.926;8.964;2023-06-19T01:02:54;98617.47;;;20.79;64.08
8318;BME280;4196;48.926;8.964;2023-06-19T01:05:42;98616.44;;;21.32;62.15
8318;BME280;4196;48.926;8.964;2023-06-19T01:09:02;98613.78;;;21.65;60.72
8318;BME280;4196;48.926;8.964;2023-06-19T01:11:55;98610.13;;;21.83;59.71
8318;BME280;4196;48.926;8.964;2023-06-19T01:14:59;98613.97;;;21.93;59.36
8318;BME280;4196;48.926;8.964;2023-06-19T01:17:47;98599.19;;;21.91;59.58
8318;BME280;4196;48.926;8.964;2023-06-19T01:20:34;98602.91;;;22.03;59.24
8318;BME280;4196;48.926;8.964;2023-06-19T01:23:21;98610.28;;;22.12;59.91
8318;BME280;4196;48.926;8.964;2023-06-19T01:26:08;98618.84;;;22.17;60.14
8318;BME280;4196;48.926;8.964;2023-06-19T01:28:57;98629.78;;;22.25;60.77
8318;BME280;4196;48.926;8.964;2023-06-19T01:31:54;98628.44;;;22.18;61.53
8318;BME280;4196;48.926;8.964;2023-06-19T01:34:45;98627.06;;;22.11;61.88
8318;BME280;4196;48.926;8.964;2023-06-19T01:37:33;98619.91;;;22.13;62.33
8318;BME280;4196;48.926;8.964;2023-06-19T01:40:20;98631.56;;;22.09;62.74
8318;BME280;4196;48.926;8.964;2023-06-19T01:43:12;98642.75;;;22.14;62.82
8318;BME280;4196;48.926;8.964;2023-06-19T01:45:59;98645.50;;;22.11;62.95
8318;BME280;4196;48.926;8.964;2023-06-19T01:48:47;98645.59;;;21.93;63.47
8318;BME280;4196;48.926;8.964;2023-06-19T01:51:34;98621.44;;;21.85;64.32
8318;BME280;4196;48.926;8.964;2023-06-19T01:54:20;98625.03;;;21.84;65.15
8318;BME280;4196;48.926;8.964;2023-06-19T01:57:07;98630.88;;;21.89;65.59
8318;BME280;4196;48.926;8.964;2023-06-19T01:59:55;98625.38;;;21.78;66.44
8318;BME280;4196;48.926;8.964;2023-06-19T02:02:41;98650.03;;;21.77;66.79
8318;BME280;4196;48.926;8.964;2023-06-19T02:05:30;98638.81;;;21.74;66.82
8318;BME280;4196;48.926;8.964;2023-06-19T02:08:16;98645.41;;;21.65;67.12
8318;BME280;4196;48.926;8.964;2023-06-19T02:11:03;98626.53;;;21.57;67.57
8318;BME280;4196;48.926;8.964;2023-06-19T02:13:51;98614.47;;;21.53;67.01
8318;BME280;4196;48.926;8.964;2023-06-19T02:16:38;98629.16;;;21.41;68.16
8318;BME280;4196;48.926;8.964;2023-06-19T02:19:27;98622.34;;;21.37;67.89
8318;BME280;4196;48.926;8.964;2023-06-19T02:22:13;98626.47;;;21.25;69.03
8318;BME280;4196;48.926;8.964;2023-06-19T02:25:00;98600.47;;;21.02;69.49
8318;BME280;4196;48.926;8.964;2023-06-19T02:27:47;98621.97;;;21.10;69.90
8318;BME280;4196;48.926;8.964;2023-06-19T02:30:34;98629.28;;;21.05;70.96
8318;BME280;4196;48.926;8.964;2023-06-19T02:33:21;98620.00;;;20.97;70.81
8318;BME280;4196;48.926;8.964;2023-06-19T02:36:07;98629.59;;;20.98;71.19
8318;BME280;4196;48.926;8.964;2023-06-19T02:38:54;98615.13;;;20.90;71.58
8318;BME280;4196;48.926;8.964;2023-06-19T02:41:41;98630.94;;;20.90;72.04
8318;BME280;4196;48.926;8.964;2023-06-19T02:44:32;98616.22;;;21.03;71.50
8318;BME280;4196;48.926;8.964;2023-06-19T02:47:18;98627.25;;;21.10;72.38
8318;BME280;4196;48.926;8.964;2023-06-19T02:50:05;98634.56;;;21.05;73.07
8318;BME280;4196;48.926;8.964;2023-06-19T02:52:52;98645.03;;;20.89;74.08
8318;BME280;4196;48.926;8.964;2023-06-19T02:55:39;98644.19;;;20.71;76.93
8318;BME280;4196;48.926;8.964;2023-06-19T02:58:27;98655.38;;;20.57;79.15
8318;BME280;4196;48.926;8.964;2023-06-19T03:01:14;98639.94;;;20.32;81.72
8318;BME280;4196;48.926;8.964;2023-06-19T03:04:04;98655.94;;;20.27;82.74
8318;BME280;4196;48.926;8.964;2023-06-19T03:06:50;98670.47;;;20.54;80.82
8318;BME280;4196;48.926;8.964;2023-06-19T03:09:37;98668.31;;;20.62;80.37
8318;BME280;4196;48.926;8.964;2023-06-19T03:12:24;98584.97;;;19.91;82.00
8318;BME280;4196;48.926;8.964;2023-06-19T03:15:10;98665.13;;;20.19;84.41
8318;BME280;4196;48.926;8.964;2023-06-19T03:18:00;98668.47;;;20.22;86.37
8318;BME280;4196;48.926;8.964;2023-06-19T03:20:50;98680.13;;;20.17;87.43
8318;BME280;4196;48.926;8.964;2023-06-19T03:23:38;98690.56;;;20.18;89.20
8318;BME280;4196;48.926;8.964;2023-06-19T03:26:24;98691.09;;;20.08;90.01
8318;BME280;4196;48.926;8.964;2023-06-19T03:29:13;98693.22;;;19.99;90.98
8318;BME280;4196;48.926;8.964;2023-06-19T03:32:12;98680.00;;;19.82;92.40
8318;BME280;4196;48.926;8.964;2023-06-19T03:35:00;98692.16;;;19.85;93.23
8318;BME280;4196;48.926;8.964;2023-06-19T03:37:47;98692.28;;;20.00;92.68
8318;BME280;4196;48.926;8.964;2023-06-19T03:40:35;98694.56;;;19.89;93.22
8318;BME280;4196;48.926;8.964;2023-06-19T03:43:27;98683.25;;;19.68;94.08
8318;BME280;4196;48.926;8.964;2023-06-19T03:46:14;98703.75;;;19.99;93.07
8318;BME280;4196;48.926;8.964;2023-06-19T03:49:01;98703.56;;;20.02;91.86
8318;BME280;4196;48.926;8.964;2023-06-19T03:51:49;98707.56;;;19.92;94.60
8318;BME280;4196;48.926;8.964;2023-06-19T03:54:36;98703.16;;;19.74;94.84
8318;BME280;4196;48.926;8.964;2023-06-19T03:57:22;98692.72;;;19.91;94.77
8318;BME280;4196;48.926;8.964;2023-06-19T04:00:10;98708.34;;;19.94;94.93
8318;BME280;4196;48.926;8.964;2023-06-19T04:03:00;98712.75;;;19.75;96.12
8318;BME280;4196;48.926;8.964;2023-06-19T04:05:47;98700.09;;;19.64;96.94
8318;BME280;4196;48.926;8.964;2023-06-19T04:08:34;98712.56;;;19.59;98.82
8318;BME280;4196;48.926;8.964;2023-06-19T04:11:21;98730.00;;;19.60;99.77
8318;BME280;4196;48.926;8.964;2023-06-19T04:14:08;98720.63;;;19.54;100.00
8318;BME280;4196;48.926;8.964;2023-06-19T04:16:55;98703.84;;;19.38;100.00
8318;BME280;4196;48.926;8.964;2023-06-19T04:19:41;98724.44;;;19.47;100.00
8318;BME280;4196;48.926;8.964;2023-06-19T04:22:28;98736.78;;;19.45;100.00
8318;BME280;4196;48.926;8.964;2023-06-19T04:25:15;98729.97;;;19.41;100.00
8318;BME280;4196;48.926;8.964;2023-06-19T04:28:02;98734.81;;;19.50;100.00
8318;BME280;4196;48.926;8.964;2023-06-19T04:30:49;98728.72;;;19.50;100.00
8318;BME280;4196;48.926;8.964;2023-06-19T04:33:36;98711.69;;;19.59;100.00
8318;BME280;4196;48.926;8.964;2023-06-19T04:36:23;98729.78;;;19.85;99.66
8318;BME280;4196;48.926;8.964;2023-06-19T04:39:09;98736.75;;;19.86;98.30
8318;BME280;4196;48.926;8.964;2023-06-19T04:41:57;98724.38;;;19.88;97.85
8318;BME280;4196;48.926;8.964;2023-06-19T04:44:43;98738.31;;;20.09;97.82
8318;BME280;4196;48.926;8.964;2023-06-19T04:47:30;98735.09;;;20.02;97.95
8318;BME280;4196;48.926;8.964;2023-06-19T04:50:37;98742.72;;;20.09;98.39
8318;BME280;4196;48.926;8.964;2023-06-19T04:53:23;98714.88;;;20.05;99.86
8318;BME280;4196;48.926;8.964;2023-06-19T04:56:10;98732.63;;;20.37;94.68
8318;BME280;4196;48.926;8.964;2023-06-19T04:58:56;98740.13;;;20.45;94.74
8318;BME280;4196;48.926;8.964;2023-06-19T05:01:45;98749.81;;;20.44;94.84
8318;BME280;4196;48.926;8.964;2023-06-19T05:04:32;98722.84;;;20.22;95.32
8318;BME280;4196;48.926;8.964;2023-06-19T05:07:19;98749.47;;;20.33;96.72
8318;BME280;4196;48.926;8.964;2023-06-19T05:10:06;98741.59;;;20.33;98.19
8318;BME280;4196;48.926;8.964;2023-06-19T05:12:53;98746.38;;;20.42;100.00
8318;BME280;4196;48.926;8.964;2023-06-19T05:15:40;98730.97;;;20.54;99.17
8318;BME280;4196;48.926;8.964;2023-06-19T05:18:27;98730.59;;;20.61;97.67
8318;BME280;4196;48.926;8.964;2023-06-19T05:21:13;98756.13;;;20.95;98.20
8318;BME280;4196;48.926;8.964;2023-06-19T05:24:00;98746.38;;;21.15;94.25
8318;BME280;4196;48.926;8.964;2023-06-19T05:26:47;98756.19;;;21.46;89.84
8318;BME280;4196;48.926;8.964;2023-06-19T05:29:33;98751.88;;;21.78;86.38
8318;BME280;4196;48.926;8.964;2023-06-19T05:32:20;98769.84;;;22.36;78.42
8318;BME280;4196;48.926;8.964;2023-06-19T05:35:07;98764.47;;;22.70;72.73
8318;BME280;4196;48.926;8.964;2023-06-19T05:37:53;98772.88;;;22.92;70.88
8318;BME280;4196;48.926;8.964;2023-06-19T05:40:40;98762.31;;;22.76;69.87
8318;BME280;4196;48.926;8.964;2023-06-19T05:43:27;98761.41;;;22.46;72.60
8318;BME280;4196;48.926;8.964;2023-06-19T05:46:13;98761.75;;;22.24;74.59
8318;BME280;4196;48.926;8.964;2023-06-19T05:49:00;98777.81;;;22.19;78.13
8318;BME280;4196;48.926;8.964;2023-06-19T05:51:47;98782.53;;;22.12;77.71
8318;BME280;4196;48.926;8.964;2023-06-19T05:54:34;98781.16;;;22.05;81.53
8318;BME280;4196;48.926;8.964;2023-06-19T05:57:21;98788.06;;;22.08;79.34
8318;BME280;4196;48.926;8.964;2023-06-19T06:00:08;98780.47;;;22.02;76.55
8318;BME280;4196;48.926;8.964;2023-06-19T06:03:00;98769.94;;;22.02;76.99
8318;BME280;4196;48.926;8.964;2023-06-19T06:05:47;98781.41;;;22.18;74.55
8318;BME280;4196;48.926;8.964;2023-06-19T06:08:35;98778.44;;;22.40;72.58
8318;BME280;4196;48.926;8.964;2023-06-19T06:11:22;98773.69;;;22.47;73.05
8318;BME280;4196;48.926;8.964;2023-06-19T06:14:09;98785.34;;;22.58;73.02
8318;BME280;4196;48.926;8.964;2023-06-19T06:16:58;98787.88;;;22.92;72.28
8318;BME280;4196;48.926;8.964;2023-06-19T06:19:45;98785.13;;;23.09;70.31
8318;BME280;4196;48.926;8.964;2023-06-19T06:22:32;98792.38;;;23.20;68.19
8318;BME280;4196;48.926;8.964;2023-06-19T06:25:19;98798.59;;;23.49;68.37
8318;BME280;4196;48.926;8.964;2023-06-19T06:28:06;98800.25;;;23.66;66.16
8318;BME280;4196;48.926;8.964;2023-06-19T06:30:53;98801.09;;;23.66;65.61
8318;BME280;4196;48.926;8.964;2023-06-19T06:33:40;98812.56;;;23.81;67.70
8318;BME280;4196;48.926;8.964;2023-06-19T06:36:26;98816.91;;;23.82;64.75
8318;BME280;4196;48.926;8.964;2023-06-19T06:39:22;98817.31;;;23.90;69.13
8318;BME280;4196;48.926;8.964;2023-06-19T06:42:09;98837.41;;;24.21;70.61
8318;BME280;4196;48.926;8.964;2023-06-19T06:44:55;98830.00;;;24.69;68.48
8318;BME280;4196;48.926;8.964;2023-06-19T06:47:42;98834.91;;;25.29;62.03
8318;BME280;4196;48.926;8.964;2023-06-19T06:50:29;98842.19;;;25.53;59.69
8318;BME280;4196;48.926;8.964;2023-06-19T06:53:18;98833.28;;;25.54;58.38
8318;BME280;4196;48.926;8.964;2023-06-19T06:56:06;98829.00;;;25.39;59.64
8318;BME280;4196;48.926;8.964;2023-06-19T06:58:52;98840.78;;;25.35;57.79
8318;BME280;4196;48.926;8.964;2023-06-19T07:01:39;98830.25;;;25.06;59.26
8318;BME280;4196;48.926;8.964;2023-06-19T07:04:26;98828.09;;;25.13;59.15
8318;BME280;4196;48.926;8.964;2023-06-19T07:07:12;98844.06;;;25.38;60.62
8318;BME280;4196;48.926;8.964;2023-06-19T07:09:59;98851.53;;;25.59;60.37
8318;BME280;4196;48.926;8.964;2023-06-19T07:12:47;98831.38;;;25.56;61.36
8318;BME280;4196;48.926;8.964;2023-06-19T07:15:33;98863.91;;;25.98;58.76
8318;BME280;4196;48.926;8.964;2023-06-19T07:18:20;98836.00;;;26.05;58.02
8318;BME280;4196;48.926;8.964;2023-06-19T07:21:14;98859.34;;;26.25;56.39
8318;BME280;4196;48.926;8.964;2023-06-19T07:24:01;98844.97;;;26.41;57.98
8318;BME280;4196;48.926;8.964;2023-06-19T07:26:48;98853.84;;;26.65;57.90
8318;BME280;4196;48.926;8.964;2023-06-19T07:29:35;98870.41;;;26.69;55.59
8318;BME280;4196;48.926;8.964;2023-06-19T07:32:22;98859.22;;;26.53;55.50
8318;BME280;4196;48.926;8.964;2023-06-19T07:35:09;98867.28;;;26.38;56.78
8318;BME280;4196;48.926;8.964;2023-06-19T07:37:57;98877.69;;;26.54;57.50
8318;BME280;4196;48.926;8.964;2023-06-19T07:40:46;98850.28;;;26.54;55.90
8318;BME280;4196;48.926;8.964;2023-06-19T07:43:36;98869.22;;;26.86;55.88
8318;BME280;4196;48.926;8.964;2023-06-19T07:46:26;98841.13;;;26.70;55.28
8318;BME280;4196;48.926;8.964;2023-06-19T07:49:13;98861.59;;;27.05;55.09
8318;BME280;4196;48.926;8.964;2023-06-19T07:52:03;98868.84;;;27.51;54.17
8318;BME280;4196;48.926;8.964;2023-06-19T07:54:54;98871.97;;;27.80;53.85
8318;BME280;4196;48.926;8.964;2023-06-19T07:57:41;98873.38;;;27.73;52.10
8318;BME280;4196;48.926;8.964;2023-06-19T08:00:28;98806.63;;;27.30;52.67
8318;BME280;4196;48.926;8.964;2023-06-19T08:03:15;98862.81;;;27.60;53.50
8318;BME280;4196;48.926;8.964;2023-06-19T08:06:02;98872.47;;;27.61;51.10
8318;BME280;4196;48.926;8.964;2023-06-19T08:08:48;98862.88;;;27.36;53.39
8318;BME280;4196;48.926;8.964;2023-06-19T08:11:35;98883.19;;;27.01;54.03
8318;BME280;4196;48.926;8.964;2023-06-19T08:14:23;98871.72;;;26.63;53.62
8318;BME280;4196;48.926;8.964;2023-06-19T08:17:10;98867.28;;;26.51;52.64
8318;BME280;4196;48.926;8.964;2023-06-19T08:19:56;98881.59;;;26.61;55.65
8318;BME280;4196;48.926;8.964;2023-06-19T08:22:43;98880.41;;;26.65;56.07
8318;BME280;4196;48.926;8.964;2023-06-19T08:25:30;98872.06;;;26.95;54.84
8318;BME280;4196;48.926;8.964;2023-06-19T08:28:16;98876.34;;;27.22;53.00
8318;BME280;4196;48.926;8.964;2023-06-19T08:31:03;98861.44;;;27.43;52.21
8318;BME280;4196;48.926;8.964;2023-06-19T08:33:50;98874.00;;;27.41;51.43
8318;BME280;4196;48.926;8.964;2023-06-19T08:36:40;98857.03;;;27.07;52.10
8318;BME280;4196;48.926;8.964;2023-06-19T08:39:26;98878.53;;;27.28;50.34
8318;BME280;4196;48.926;8.964;2023-06-19T08:42:13;98857.38;;;26.66;51.99
8318;BME280;4196;48.926;8.964;2023-06-19T08:45:00;98867.06;;;26.29;53.32
8318;BME280;4196;48.926;8.964;2023-06-19T08:47:48;98852.25;;;26.00;54.74
8318;BME280;4196;48.926;8.964;2023-06-19T08:50:35;98871.13;;;25.96;56.43
8318;BME280;4196;48.926;8.964;2023-06-19T08:53:21;98880.47;;;26.01;54.40
8318;BME280;4196;48.926;8.964;2023-06-19T08:56:11;98862.53;;;25.92;54.69
8318;BME280;4196;48.926;8.964;2023-06-19T08:59:07;98853.94;;;25.89;54.70
8318;BME280;4196;48.926;8.964;2023-06-19T09:01:54;98871.34;;;25.93;55.67
8318;BME280;4196;48.926;8.964;2023-06-19T09:04:46;98866.75;;;25.95;54.67
8318;BME280;4196;48.926;8.964;2023-06-19T09:07:32;98859.88;;;26.05;57.87
8318;BME280;4196;48.926;8.964;2023-06-19T09:10:22;98870.34;;;26.32;56.32
8318;BME280;4196;48.926;8.964;2023-06-19T09:13:10;98865.78;;;26.60;54.11
8318;BME280;4196;48.926;8.964;2023-06-19T09:15:59;98865.09;;;26.82;53.56
8318;BME280;4196;48.926;8.964;2023-06-19T09:18:49;98872.84;;;26.85;54.34
8318;BME280;4196;48.926;8.964;2023-06-19T09:21:37;98853.06;;;26.89;53.14
8318;BME280;4196;48.926;8.964;2023-06-19T09:24:33;98850.13;;;26.81;52.49
8318;BME280;4196;48.926;8.964;2023-06-19T09:27:20;98866.72;;;26.71;52.68
8318;BME280;4196;48.926;8.964;2023-06-19T09:30:06;98867.25;;;26.64;53.64
8318;BME280;4196;48.926;8.964;2023-06-19T09:33:06;98869.78;;;26.65;54.10
8318;BME280;4196;48.926;8.964;2023-06-19T09:35:54;98863.84;;;26.62;52.90
8318;BME280;4196;48.926;8.964;2023-06-19T09:38:45;98858.31;;;26.65;54.02
8318;BME280;4196;48.926;8.964;2023-06-19T09:41:35;98865.09;;;26.82;53.09
8318;BME280;4196;48.926;8.964;2023-06-19T09:44:23;98871.69;;;26.76;53.29
8318;BME280;4196;48.926;8.964;2023-06-19T09:47:18;98874.25;;;26.65;54.52
8318;BME280;4196;48.926;8.964;2023-06-19T09:50:12;98872.16;;;26.57;54.57
8318;BME280;4196;48.926;8.964;2023-06-19T09:53:05;98874.94;;;26.56;53.87
8318;BME280;4196;48.926;8.964;2023-06-19T09:55:52;98872.69;;;26.49;55.59
8318;BME280;4196;48.926;8.964;2023-06-19T09:58:39;98853.69;;;26.30;56.35
8318;BME280;4196;48.926;8.964;2023-06-19T10:01:30;98870.69;;;26.53;55.86
8318;BME280;4196;48.926;8.964;2023-06-19T10:04:18;98862.16;;;26.73;54.80
8318;BME280;4196;48.926;8.964;2023-06-19T10:07:17;98859.16;;;26.78;53.83
8318;BME280;4196;48.926;8.964;2023-06-19T10:10:06;98850.84;;;26.83;54.62
8318;BME280;4196;48.926;8.964;2023-06-19T10:13:11;98854.59;;;27.04;53.83
8318;BME280;4196;48.926;8.964;2023-06-19T10:15:59;98864.19;;;26.94;54.25
8318;BME280;4196;48.926;8.964;2023-06-19T10:18:46;98867.13;;;27.02;53.96
8318;BME280;4196;48.926;8.964;2023-06-19T10:21:44;98859.91;;;27.04;52.24
8318;BME280;4196;48.926;8.964;2023-06-19T10:24:31;98853.13;;;27.00;53.21
8318;BME280;4196;48.926;8.964;2023-06-19T10:27:21;98845.16;;;27.00;51.84
8318;BME280;4196;48.926;8.964;2023-06-19T10:30:16;98853.19;;;27.11;53.33
8318;BME280;4196;48.926;8.964;2023-06-19T10:33:04;98846.00;;;27.25;51.89
8318;BME280;4196;48.926;8.964;2023-06-19T10:35:51;98835.47;;;27.47;50.84
8318;BME280;4196;48.926;8.964;2023-06-19T10:38:38;98832.78;;;27.36;52.17
8318;BME280;4196;48.926;8.964;2023-06-19T10:41:25;98830.88;;;27.60;51.27
8318;BME280;4196;48.926;8.964;2023-06-19T10:44:12;98833.56;;;27.72;50.70
8318;BME280;4196;48.926;8.964;2023-06-19T10:46:59;98817.63;;;27.72;50.19
8318;BME280;4196;48.926;8.964;2023-06-19T10:49:46;98829.22;;;27.70;51.32
8318;BME280;4196;48.926;8.964;2023-06-19T10:52:32;98823.16;;;27.68;51.51
8318;BME280;4196;48.926;8.964;2023-06-19T10:55:19;98832.97;;;27.68;51.28
8318;BME280;4196;48.926;8.964;2023-06-19T10:58:06;98814.47;;;27.66;50.33
8318;BME280;4196;48.926;8.964;2023-06-19T11:00:53;98825.97;;;27.67;49.28
8318;BME280;4196;48.926;8.964;2023-06-19T11:03:40;98807.19;;;27.57;51.83
8318;BME280;4196;48.926;8.964;2023-06-19T11:06:26;98813.78;;;27.76;52.27
8318;BME280;4196;48.926;8.964;2023-06-19T11:09:13;98811.66;;;28.03;50.81
8318;BME280;4196;48.926;8.964;2023-06-19T11:12:00;98820.84;;;28.22;51.28
8318;BME280;4196;48.926;8.964;2023-06-19T11:14:48;98821.22;;;28.39;50.78
8318;BME280;4196;48.926;8.964;2023-06-19T11:17:35;98811.84;;;28.68;49.89
8318;BME280;4196;48.926;8.964;2023-06-19T11:20:22;98801.78;;;28.71;47.59
8318;BME280;4196;48.926;8.964;2023-06-19T11:23:12;98792.22;;;28.80;48.50
8318;BME280;4196;48.926;8.964;2023-06-19T11:26:05;98800.28;;;28.89;47.21
8318;BME280;4196;48.926;8.964;2023-06-19T11:28:52;98806.72;;;28.98;47.03
8318;BME280;4196;48.926;8.964;2023-06-19T11:31:38;98800.81;;;28.83;44.57
8318;BME280;4196;48.926;8.964;2023-06-19T11:34:34;98792.28;;;28.57;47.55
8318;BME280;4196;48.926;8.964;2023-06-19T11:37:23;98792.50;;;28.65;47.20
8318;BME280;4196;48.926;8.964;2023-06-19T11:40:11;98806.72;;;28.87;46.71
8318;BME280;4196;48.926;8.964;2023-06-19T11:43:00;98802.31;;;28.97;47.26
8318;BME280;4196;48.926;8.964;2023-06-19T11:45:50;98750.75;;;28.87;48.26
8318;BME280;4196;48.926;8.964;2023-06-19T11:48:39;98782.09;;;29.27;46.63
8318;BME280;4196;48.926;8.964;2023-06-19T11:51:27;98797.53;;;29.44;45.62
8318;BME280;4196;48.926;8.964;2023-06-19T11:54:15;98807.69;;;29.50;43.50
8318;BME280;4196;48.926;8.964;2023-06-19T11:57:01;98797.22;;;29.58;45.39
8318;BME280;4196;48.926;8.964;2023-06-19T11:59:52;98800.94;;;29.67;44.62
8318;BME280;4196;48.926;8.964;2023-06-19T12:02:38;98788.88;;;29.73;45.04
8318;BME280;4196;48.926;8.964;2023-06-19T12:05:25;98792.91;;;29.67;45.00
8318;BME280;4196;48.926;8.964;2023-06-19T12:08:12;98797.66;;;29.84;44.70
8318;BME280;4196;48.926;8.964;2023-06-19T12:11:01;98795.81;;;29.22;46.06
8318;BME280;4196;48.926;8.964;2023-06-19T12:13:48;98723.94;;;28.56;46.25
8318;BME280;4196;48.926;8.964;2023-06-19T12:16:37;98774.53;;;28.68;46.75
8318;BME280;4196;48.926;8.964;2023-06-19T12:19:25;98757.50;;;28.59;46.93
8318;BME280;4196;48.926;8.964;2023-06-19T12:22:11;98759.16;;;28.71;46.10
8318;BME280;4196;48.926;8.964;2023-06-19T12:24:58;98780.69;;;28.79;45.68
8318;BME280;4196;48.926;8.964;2023-06-19T12:27:45;98771.47;;;28.83;45.94
8318;BME280;4196;48.926;8.964;2023-06-19T12:30:32;98757.38;;;29.25;45.07
8318;BME280;4196;48.926;8.964;2023-06-19T12:33:19;98769.03;;;29.66;45.87
8318;BME280;4196;48.926;8.964;2023-06-19T12:36:07;98771.09;;;30.14;45.13
8318;BME280;4196;48.926;8.964;2023-06-19T12:38:54;98769.00;;;30.58;43.96
8318;BME280;4196;48.926;8.964;2023-06-19T12:41:41;98762.00;;;30.95;45.07
8318;BME280;4196;48.926;8.964;2023-06-19T12:44:27;98756.13;;;31.01;40.70
8318;BME280;4196;48.926;8.964;2023-06-19T12:47:14;98763.16;;;31.12;41.63
8318;BME280;4196;48.926;8.964;2023-06-19T12:50:04;98750.47;;;31.24;41.16
8318;BME280;4196;48.926;8.964;2023-06-19T12:52:50;98760.88;;;31.37;39.79
8318;BME280;4196;48.926;8.964;2023-06-19T12:55:37;98742.16;;;31.27;40.15
8318;BME280;4196;48.926;8.964;2023-06-19T12:58:43;98745.50;;;31.29;41.04
8318;BME280;4196;48.926;8.964;2023-06-19T13:01:30;98758.22;;;31.27;39.65
8318;BME280;4196;48.926;8.964;2023-06-19T13:04:16;98745.38;;;31.40;40.21
8318;BME280;4196;48.926;8.964;2023-06-19T13:07:03;98742.03;;;31.38;41.25
8318;BME280;4196;48.926;8.964;2023-06-19T13:09:50;98743.94;;;31.56;39.52
8318;BME280;4196;48.926;8.964;2023-06-19T13:12:37;98740.31;;;31.47;39.80
8318;BME280;4196;48.926;8.964;2023-06-19T13:15:24;98733.53;;;31.52;39.08
8318;BME280;4196;48.926;8.964;2023-06-19T13:18:11;98733.31;;;30.97;39.86
8318;BME280;4196;48.926;8.964;2023-06-19T13:20:58;98717.94;;;30.11;41.04
8318;BME280;4196;48.926;8.964;2023-06-19T13:23:45;98684.69;;;29.84;41.33
8318;BME280;4196;48.926;8.964;2023-06-19T13:26:32;98675.53;;;29.77;41.32
8318;BME280;4196;48.926;8.964;2023-06-19T13:29:18;98733.28;;;29.78;42.14
8318;BME280;4196;48.926;8.964;2023-06-19T13:32:05;98715.25;;;29.60;42.65
8318;BME280;4196;48.926;8.964;2023-06-19T13:34:52;98727.09;;;29.77;42.01
8318;BME280;4196;48.926;8.964;2023-06-19T13:37:39;98724.00;;;29.72;42.11
8318;BME280;4196;48.926;8.964;2023-06-19T13:40:28;98721.56;;;29.48;42.99
8318;BME280;4196;48.926;8.964;2023-06-19T13:43:15;98705.13;;;29.43;43.83
8318;BME280;4196;48.926;8.964;2023-06-19T13:46:02;98706.13;;;29.42;42.62
8318;BME280;4196;48.926;8.964;2023-06-19T13:48:51;98711.50;;;29.31;43.57
8318;BME280;4196;48.926;8.964;2023-06-19T13:51:38;98714.56;;;29.26;44.27
8318;BME280;4196;48.926;8.964;2023-06-19T13:54:25;98702.66;;;29.30;45.05
8318;BME280;4196;48.926;8.964;2023-06-19T13:57:11;98704.88;;;29.46;45.50
8318;BME280;4196;48.926;8.964;2023-06-19T14:00:18;98698.47;;;29.79;44.51
8318;BME280;4196;48.926;8.964;2023-06-19T14:03:05;98688.16;;;30.05;42.29
8318;BME280;4196;48.926;8.964;2023-06-19T14:05:53;98686.56;;;30.43;42.13
8318;BME280;4196;48.926;8.964;2023-06-19T14:08:40;98680.97;;;30.75;41.78
8318;BME280;4196;48.926;8.964;2023-06-19T14:11:27;98676.88;;;30.91;43.36
8318;BME280;4196;48.926;8.964;2023-06-19T14:14:15;98677.00;;;30.99;45.62
8318;BME280;4196;48.926;8.964;2023-06-19T14:17:02;98678.16;;;30.87;40.73
8318;BME280;4196;48.926;8.964;2023-06-19T14:19:49;98666.28;;;30.70;40.78
8318;BME280;4196;48.926;8.964;2023-06-19T14:22:43;98663.22;;;30.55;44.81
8318;BME280;4196;48.926;8.964;2023-06-19T14:25:33;98676.28;;;30.48;45.65
8318;BME280;4196;48.926;8.964;2023-06-19T14:28:27;98673.06;;;30.35;45.92
8318;BME280;4196;48.926;8.964;2023-06-19T14:31:13;98670.53;;;30.43;42.58
8318;BME280;4196;48.926;8.964;2023-06-19T14:34:03;98677.97;;;30.40;42.32
8318;BME280;4196;48.926;8.964;2023-06-19T14:36:54;98673.59;;;30.48;41.71
8318;BME280;4196;48.926;8.964;2023-06-19T14:39:44;98670.41;;;30.04;42.19
8318;BME280;4196;48.926;8.964;2023-06-19T14:42:30;98665.38;;;30.11;42.15
8318;BME280;4196;48.926;8.964;2023-06-19T14:45:19;98662.81;;;29.90;43.15
8318;BME280;4196;48.926;8.964;2023-06-19T14:48:07;98659.94;;;29.72;43.30
8318;BME280;4196;48.926;8.964;2023-06-19T14:50:54;98649.03;;;29.54;43.26
8318;BME280;4196;48.926;8.964;2023-06-19T14:53:41;98651.94;;;29.21;44.19
8318;BME280;4196;48.926;8.964;2023-06-19T14:56:28;98658.63;;;29.36;44.09
8318;BME280;4196;48.926;8.964;2023-06-19T14:59:15;98649.47;;;29.08;44.15
8318;BME280;4196;48.926;8.964;2023-06-19T15:02:05;98646.16;;;29.16;44.15
8318;BME280;4196;48.926;8.964;2023-06-19T15:04:56;98640.78;;;29.06;44.31
8318;BME280;4196;48.926;8.964;2023-06-19T15:07:55;98639.22;;;29.03;45.36
8318;BME280;4196;48.926;8.964;2023-06-19T15:10:42;98644.09;;;28.98;46.62
8318;BME280;4196;48.926;8.964;2023-06-19T15:13:29;98627.88;;;29.11;45.22
8318;BME280;4196;48.926;8.964;2023-06-19T15:16:15;98634.44;;;28.86;46.17